sensor_id;sensor_type;location;lat;lon;timestamp;P1;durP1;ratioP1;P2;durP2;ratioP2
14116;SDS011;7137;51.436;6.544;2024-01-30T00:02:24;13.50;;;10.20;;
14116;SDS011;7137;51.436;6.544;2024-01-30T00:05:25;11.60;;;9.60;;
14116;SDS011;7137;51.436;6.544;2024-01-30T00:08:27;14.27;;;9.80;;
14116;SDS011;7137;51.436;6.544;2024-01-30T00:11:28;11.87;;;9.93;;
14116;SDS011;7137;51.436;6.544;2024-01-30T00:14:31;12.90;;;9.70;;
14116;SDS011;7137;51.436;6.544;2024-01-30T00:17:32;13.60;;;10.60;;
14116;SDS011;7137;51.436;6.544;2024-01-30T00:20:34;13.20;;;9.90;;
14116;SDS011;7137;51.436;6.544;2024-01-30T00:23:36;13.57;;;10.37;;
14116;SDS011;7137;51.436;6.544;2024-01-30T00:26:39;14.20;;;10.67;;
14116;SDS011;7137;51.436;6.544;2024-01-30T00:29:42;11.43;;;10.00;;
14116;SDS011;7137;51.436;6.544;2024-01-30T00:32:43;13.83;;;9.57;;
14116;SDS011;7137;51.436;6.544;2024-01-30T00:35:45;11.13;;;9.67;;
14116;SDS011;7137;51.436;6.544;2024-01-30T00:38:47;12.33;;;10.10;;
14116;SDS011;7137;51.436;6.544;2024-01-30T00:41:48;13.27;;;10.07;;
14116;SDS011;7137;51.436;6.544;2024-01-30T00:44:51;13.33;;;10.67;;
14116;SDS011;7137;51.436;6.544;2024-01-30T00:47:53;13.93;;;11.80;;
14116;SDS011;7137;51.436;6.544;2024-01-30T00:50:54;13.07;;;11.47;;
14116;SDS011;7137;51.436;6.544;2024-01-30T00:53:56;15.87;;;11.87;;
14116;SDS011;7137;51.436;6.544;2024-01-30T00:56:57;16.50;;;12.50;;
14116;SDS011;7137;51.436;6.544;2024-01-30T01:00:01;13.50;;;11.20;;
14116;SDS011;7137;51.436;6.544;2024-01-30T01:03:06;14.17;;;11.27;;
14116;SDS011;7137;51.436;6.544;2024-01-30T01:06:09;13.47;;;11.17;;
14116;SDS011;7137;51.436;6.544;2024-01-30T01:09:10;15.63;;;12.10;;
14116;SDS011;7137;51.436;6.544;2024-01-30T01:12:12;16.83;;;12.13;;
14116;SDS011;7137;51.436;6.544;2024-01-30T01:15:15;14.90;;;11.97;;
14116;SDS011;7137;51.436;6.544;2024-01-30T01:18:16;15.60;;;11.70;;
14116;SDS011;7137;51.436;6.544;2024-01-30T01:21:18;15.17;;;11.60;;
14116;SDS011;7137;51.436;6.544;2024-01-30T01:24:25;15.10;;;11.10;;
14116;SDS011;7137;51.436;6.544;2024-01-30T01:27:26;13.37;;;10.67;;
14116;SDS011;7137;51.436;6.544;2024-01-30T01:30:29;14.50;;;10.90;;
14116;SDS011;7137;51.436;6.544;2024-01-30T01:33:31;14.27;;;11.20;;
14116;SDS011;7137;51.436;6.544;2024-01-30T01:36:33;14.27;;;10.97;;
14116;SDS011;7137;51.436;6.544;2024-01-30T01:39:35;13.97;;;10.83;;
14116;SDS011;7137;51.436;6.544;2024-01-30T01:42:37;14.77;;;10.80;;
14116;SDS011;7137;51.436;6.544;2024-01-30T01:45:39;13.13;;;10.60;;
14116;SDS011;7137;51.436;6.544;2024-01-30T01:48:41;15.47;;;11.03;;
14116;SDS011;7137;51.436;6.544;2024-01-30T01:51:44;14.27;;;10.73;;
14116;SDS011;7137;51.436;6.544;2024-01-30T01:54:48;14.30;;;11.03;;
14116;SDS011;7137;51.436;6.544;2024-01-30T01:57:49;13.77;;;10.90;;
14116;SDS011;7137;51.436;6.544;2024-01-30T02:00:52;14.73;;;11.27;;
14116;SDS011;7137;51.436;6.544;2024-01-30T02:03:54;14.73;;;11.60;;
14116;SDS011;7137;51.436;6.544;2024-01-30T02:06:56;14.60;;;11.00;;
14116;SDS011;7137;51.436;6.544;2024-01-30T02:09:58;15.00;;;11.33;;
14116;SDS011;7137;51.436;6.544;2024-01-30T02:12:59;12.97;;;11.57;;
14116;SDS011;7137;51.436;6.544;2024-01-30T02:19:59;15.27;;;12.00;;
14116;SDS011;7137;51.436;6.544;2024-01-30T02:23:02;14.47;;;11.17;;
14116;SDS011;7137;51.436;6.544;2024-01-30T02:26:05;14.27;;;11.83;;
14116;SDS011;7137;51.436;6.544;2024-01-30T02:29:07;15.47;;;12.17;;
14116;SDS011;7137;51.436;6.544;2024-01-30T02:32:11;13.77;;;12.10;;
14116;SDS011;7137;51.436;6.544;2024-01-30T02:35:13;15.37;;;12.40;;
14116;SDS011;7137;51.436;6.544;2024-01-30T02:38:17;14.90;;;12.13;;
14116;SDS011;7137;51.436;6.544;2024-01-30T02:41:18;16.73;;;12.47;;
14116;SDS011;7137;51.436;6.544;2024-01-30T02:44:20;16.07;;;12.00;;
14116;SDS011;7137;51.436;6.544;2024-01-30T02:47:21;14.57;;;12.20;;
14116;SDS011;7137;51.436;6.544;2024-01-30T02:50:23;15.93;;;12.30;;
14116;SDS011;7137;51.436;6.544;2024-01-30T02:53:26;15.20;;;12.03;;
14116;SDS011;7137;51.436;6.544;2024-01-30T02:56:27;17.07;;;12.20;;
14116;SDS011;7137;51.436;6.544;2024-01-30T02:59:28;15.43;;;12.53;;
14116;SDS011;7137;51.436;6.544;2024-01-30T03:02:33;16.57;;;12.23;;
14116;SDS011;7137;51.436;6.544;2024-01-30T03:05:34;13.93;;;12.00;;
14116;SDS011;7137;51.436;6.544;2024-01-30T03:08:37;15.83;;;12.57;;
14116;SDS011;7137;51.436;6.544;2024-01-30T03:11:40;15.13;;;12.37;;
14116;SDS011;7137;51.436;6.544;2024-01-30T03:14:42;14.07;;;11.77;;
14116;SDS011;7137;51.436;6.544;2024-01-30T03:17:43;14.93;;;11.93;;
14116;SDS011;7137;51.436;6.544;2024-01-30T03:20:45;15.97;;;12.23;;
14116;SDS011;7137;51.436;6.544;2024-01-30T03:23:47;17.33;;;12.53;;
14116;SDS011;7137;51.436;6.544;2024-01-30T03:26:49;17.13;;;12.50;;
14116;SDS011;7137;51.436;6.544;2024-01-30T03:29:50;16.77;;;12.00;;
14116;SDS011;7137;51.436;6.544;2024-01-30T03:32:52;14.33;;;11.57;;
14116;SDS011;7137;51.436;6.544;2024-01-30T03:35:53;17.43;;;12.33;;
14116;SDS011;7137;51.436;6.544;2024-01-30T03:38:56;14.87;;;12.00;;
14116;SDS011;7137;51.436;6.544;2024-01-30T03:41:58;15.63;;;11.87;;
14116;SDS011;7137;51.436;6.544;2024-01-30T03:44:59;14.20;;;12.10;;
14116;SDS011;7137;51.436;6.544;2024-01-30T03:48:01;15.57;;;12.07;;
14116;SDS011;7137;51.436;6.544;2024-01-30T03:51:04;15.43;;;12.60;;
14116;SDS011;7137;51.436;6.544;2024-01-30T03:54:09;18.53;;;12.50;;
14116;SDS011;7137;51.436;6.544;2024-01-30T03:57:12;16.43;;;12.63;;
14116;SDS011;7137;51.436;6.544;2024-01-30T04:00:14;16.40;;;12.53;;
14116;SDS011;7137;51.436;6.544;2024-01-30T04:03:16;18.80;;;13.37;;
14116;SDS011;7137;51.436;6.544;2024-01-30T04:06:17;15.33;;;12.73;;
14116;SDS011;7137;51.436;6.544;2024-01-30T04:09:20;17.10;;;12.20;;
14116;SDS011;7137;51.436;6.544;2024-01-30T04:12:22;17.20;;;13.13;;
14116;SDS011;7137;51.436;6.544;2024-01-30T04:15:24;18.23;;;12.90;;
14116;SDS011;7137;51.436;6.544;2024-01-30T04:18:26;15.37;;;13.13;;
14116;SDS011;7137;51.436;6.544;2024-01-30T04:21:28;17.87;;;13.00;;
14116;SDS011;7137;51.436;6.544;2024-01-30T04:24:30;15.93;;;13.00;;
14116;SDS011;7137;51.436;6.544;2024-01-30T04:27:32;14.27;;;12.27;;
14116;SDS011;7137;51.436;6.544;2024-01-30T04:30:34;17.23;;;13.33;;
14116;SDS011;7137;51.436;6.544;2024-01-30T04:33:37;18.83;;;13.17;;
14116;SDS011;7137;51.436;6.544;2024-01-30T04:36:43;18.57;;;13.90;;
14116;SDS011;7137;51.436;6.544;2024-01-30T04:39:47;15.87;;;13.20;;
14116;SDS011;7137;51.436;6.544;2024-01-30T04:42:49;15.70;;;13.47;;
14116;SDS011;7137;51.436;6.544;2024-01-30T04:45:51;18.10;;;13.43;;
14116;SDS011;7137;51.436;6.544;2024-01-30T04:48:52;18.27;;;14.10;;
14116;SDS011;7137;51.436;6.544;2024-01-30T04:51:54;18.70;;;14.37;;
14116;SDS011;7137;51.436;6.544;2024-01-30T04:54:56;15.63;;;13.63;;
14116;SDS011;7137;51.436;6.544;2024-01-30T04:57:58;17.77;;;13.10;;
14116;SDS011;7137;51.436;6.544;2024-01-30T05:00:59;16.33;;;12.60;;
14116;SDS011;7137;51.436;6.544;2024-01-30T05:04:01;15.47;;;12.33;;
14116;SDS011;7137;51.436;6.544;2024-01-30T05:07:03;13.80;;;11.27;;
14116;SDS011;7137;51.436;6.544;2024-01-30T05:10:06;13.70;;;10.87;;
14116;SDS011;7137;51.436;6.544;2024-01-30T05:13:09;14.30;;;11.10;;
14116;SDS011;7137;51.436;6.544;2024-01-30T05:16:13;12.73;;;10.73;;
14116;SDS011;7137;51.436;6.544;2024-01-30T05:19:16;14.63;;;10.93;;
14116;SDS011;7137;51.436;6.544;2024-01-30T05:22:19;13.93;;;10.77;;
14116;SDS011;7137;51.436;6.544;2024-01-30T05:25:21;15.07;;;11.37;;
14116;SDS011;7137;51.436;6.544;2024-01-30T05:28:23;17.97;;;12.20;;
14116;SDS011;7137;51.436;6.544;2024-01-30T05:31:25;14.57;;;11.50;;
14116;SDS011;7137;51.436;6.544;2024-01-30T05:34:27;12.43;;;10.90;;
14116;SDS011;7137;51.436;6.544;2024-01-30T05:37:28;14.20;;;10.93;;
14116;SDS011;7137;51.436;6.544;2024-01-30T05:40:31;13.07;;;10.57;;
14116;SDS011;7137;51.436;6.544;2024-01-30T05:43:32;13.03;;;10.93;;
14116;SDS011;7137;51.436;6.544;2024-01-30T05:46:35;14.23;;;10.63;;
14116;SDS011;7137;51.436;6.544;2024-01-30T05:49:36;13.33;;;10.97;;
14116;SDS011;7137;51.436;6.544;2024-01-30T05:52:39;11.60;;;10.40;;
14116;SDS011;7137;51.436;6.544;2024-01-30T05:55:41;13.43;;;10.80;;
14116;SDS011;7137;51.436;6.544;2024-01-30T05:58:43;14.80;;;11.20;;
14116;SDS011;7137;51.436;6.544;2024-01-30T06:01:47;14.10;;;11.37;;
14116;SDS011;7137;51.436;6.544;2024-01-30T06:04:49;14.67;;;11.20;;
14116;SDS011;7137;51.436;6.544;2024-01-30T06:07:51;13.63;;;10.50;;
14116;SDS011;7137;51.436;6.544;2024-01-30T06:10:53;13.33;;;10.77;;
14116;SDS011;7137;51.436;6.544;2024-01-30T06:13:55;13.13;;;10.60;;
14116;SDS011;7137;51.436;6.544;2024-01-30T06:16:56;13.77;;;9.97;;
14116;SDS011;7137;51.436;6.544;2024-01-30T06:19:58;13.77;;;10.47;;
14116;SDS011;7137;51.436;6.544;2024-01-30T06:22:59;13.43;;;10.60;;
14116;SDS011;7137;51.436;6.544;2024-01-30T06:26:02;13.60;;;10.40;;
14116;SDS011;7137;51.436;6.544;2024-01-30T06:29:04;13.00;;;10.10;;
14116;SDS011;7137;51.436;6.544;2024-01-30T06:32:06;13.33;;;9.97;;
14116;SDS011;7137;51.436;6.544;2024-01-30T06:35:07;14.13;;;10.30;;
14116;SDS011;7137;51.436;6.544;2024-01-30T06:38:10;14.87;;;10.73;;
14116;SDS011;7137;51.436;6.544;2024-01-30T06:41:13;14.37;;;10.90;;
14116;SDS011;7137;51.436;6.544;2024-01-30T06:44:14;11.57;;;9.87;;
14116;SDS011;7137;51.436;6.544;2024-01-30T06:47:16;12.23;;;9.97;;
14116;SDS011;7137;51.436;6.544;2024-01-30T06:50:17;16.57;;;11.37;;
14116;SDS011;7137;51.436;6.544;2024-01-30T06:53:20;15.33;;;10.00;;
14116;SDS011;7137;51.436;6.544;2024-01-30T06:56:22;14.03;;;10.77;;
14116;SDS011;7137;51.436;6.544;2024-01-30T06:59:24;14.57;;;10.63;;
14116;SDS011;7137;51.436;6.544;2024-01-30T07:02:26;13.87;;;10.70;;
14116;SDS011;7137;51.436;6.544;2024-01-30T07:05:27;12.00;;;10.37;;
14116;SDS011;7137;51.436;6.544;2024-01-30T07:08:28;12.40;;;10.13;;
14116;SDS011;7137;51.436;6.544;2024-01-30T07:11:31;12.80;;;10.47;;
14116;SDS011;7137;51.436;6.544;2024-01-30T07:14:33;12.83;;;9.97;;
14116;SDS011;7137;51.436;6.544;2024-01-30T07:17:35;13.00;;;9.90;;
14116;SDS011;7137;51.436;6.544;2024-01-30T07:20:37;13.13;;;10.27;;
14116;SDS011;7137;51.436;6.544;2024-01-30T07:23:42;12.70;;;10.30;;
14116;SDS011;7137;51.436;6.544;2024-01-30T07:26:45;13.27;;;10.40;;
14116;SDS011;7137;51.436;6.544;2024-01-30T07:29:47;12.20;;;9.97;;
14116;SDS011;7137;51.436;6.544;2024-01-30T07:32:49;13.47;;;9.80;;
14116;SDS011;7137;51.436;6.544;2024-01-30T07:35:51;12.83;;;10.00;;
14116;SDS011;7137;51.436;6.544;2024-01-30T07:38:53;14.30;;;10.30;;
14116;SDS011;7137;51.436;6.544;2024-01-30T07:41:56;14.37;;;10.47;;
14116;SDS011;7137;51.436;6.544;2024-01-30T07:44:58;15.63;;;10.03;;
14116;SDS011;7137;51.436;6.544;2024-01-30T07:47:59;11.63;;;9.67;;
14116;SDS011;7137;51.436;6.544;2024-01-30T07:51:01;13.87;;;10.27;;
14116;SDS011;7137;51.436;6.544;2024-01-30T07:54:04;12.93;;;9.73;;
14116;SDS011;7137;51.436;6.544;2024-01-30T07:57:07;12.37;;;9.73;;
14116;SDS011;7137;51.436;6.544;2024-01-30T08:00:09;13.97;;;9.90;;
14116;SDS011;7137;51.436;6.544;2024-01-30T08:03:11;14.97;;;10.67;;
14116;SDS011;7137;51.436;6.544;2024-01-30T08:06:13;11.43;;;9.83;;
14116;SDS011;7137;51.436;6.544;2024-01-30T08:09:14;13.47;;;10.00;;
14116;SDS011;7137;51.436;6.544;2024-01-30T08:12:18;12.23;;;9.90;;
14116;SDS011;7137;51.436;6.544;2024-01-30T08:15:20;14.57;;;10.40;;
14116;SDS011;7137;51.436;6.544;2024-01-30T08:18:21;14.17;;;10.63;;
14116;SDS011;7137;51.436;6.544;2024-01-30T08:21:23;13.83;;;9.47;;
14116;SDS011;7137;51.436;6.544;2024-01-30T08:24:25;15.83;;;9.73;;
14116;SDS011;7137;51.436;6.544;2024-01-30T08:27:27;13.67;;;9.80;;
14116;SDS011;7137;51.436;6.544;2024-01-30T08:30:29;14.17;;;10.27;;
14116;SDS011;7137;51.436;6.544;2024-01-30T08:33:30;14.37;;;10.03;;
14116;SDS011;7137;51.436;6.544;2024-01-30T08:36:32;12.50;;;10.00;;
14116;SDS011;7137;51.436;6.544;2024-01-30T08:39:33;13.23;;;9.63;;
14116;SDS011;7137;51.436;6.544;2024-01-30T08:42:36;12.60;;;9.90;;
14116;SDS011;7137;51.436;6.544;2024-01-30T08:45:38;12.87;;;9.70;;
14116;SDS011;7137;51.436;6.544;2024-01-30T08:48:39;13.77;;;9.77;;
14116;SDS011;7137;51.436;6.544;2024-01-30T08:51:40;12.20;;;9.67;;
14116;SDS011;7137;51.436;6.544;2024-01-30T08:54:42;13.43;;;9.70;;
14116;SDS011;7137;51.436;6.544;2024-01-30T08:57:45;11.70;;;9.20;;
14116;SDS011;7137;51.436;6.544;2024-01-30T09:00:47;12.53;;;9.43;;
14116;SDS011;7137;51.436;6.544;2024-01-30T09:03:49;12.93;;;9.50;;
14116;SDS011;7137;51.436;6.544;2024-01-30T09:06:52;13.40;;;9.63;;
14116;SDS011;7137;51.436;6.544;2024-01-30T09:09:54;12.50;;;9.77;;
14116;SDS011;7137;51.436;6.544;2024-01-30T09:12:57;13.47;;;10.07;;
14116;SDS011;7137;51.436;6.544;2024-01-30T09:15:59;10.97;;;9.30;;
14116;SDS011;7137;51.436;6.544;2024-01-30T09:19:02;13.17;;;9.50;;
14116;SDS011;7137;51.436;6.544;2024-01-30T09:22:07;12.43;;;9.53;;
14116;SDS011;7137;51.436;6.544;2024-01-30T09:25:09;12.33;;;9.93;;
14116;SDS011;7137;51.436;6.544;2024-01-30T09:28:13;11.43;;;9.67;;
14116;SDS011;7137;51.436;6.544;2024-01-30T09:31:15;12.47;;;10.23;;
14116;SDS011;7137;51.436;6.544;2024-01-30T09:34:17;12.33;;;10.27;;
14116;SDS011;7137;51.436;6.544;2024-01-30T09:37:19;11.43;;;9.53;;
14116;SDS011;7137;51.436;6.544;2024-01-30T09:40:21;12.90;;;9.63;;
14116;SDS011;7137;51.436;6.544;2024-01-30T09:43:25;12.13;;;9.77;;
14116;SDS011;7137;51.436;6.544;2024-01-30T09:46:30;12.37;;;9.73;;
14116;SDS011;7137;51.436;6.544;2024-01-30T09:49:33;13.47;;;9.67;;
14116;SDS011;7137;51.436;6.544;2024-01-30T09:52:35;12.33;;;9.53;;
14116;SDS011;7137;51.436;6.544;2024-01-30T09:55:37;11.30;;;8.90;;
14116;SDS011;7137;51.436;6.544;2024-01-30T09:58:40;12.50;;;9.03;;
14116;SDS011;7137;51.436;6.544;2024-01-30T10:01:42;14.67;;;9.20;;
14116;SDS011;7137;51.436;6.544;2024-01-30T10:04:44;11.07;;;9.17;;
14116;SDS011;7137;51.436;6.544;2024-01-30T10:07:50;12.53;;;9.03;;
14116;SDS011;7137;51.436;6.544;2024-01-30T10:10:55;11.70;;;8.80;;
14116;SDS011;7137;51.436;6.544;2024-01-30T10:13:59;11.80;;;9.30;;
14116;SDS011;7137;51.436;6.544;2024-01-30T10:17:01;12.10;;;9.10;;
14116;SDS011;7137;51.436;6.544;2024-01-30T10:20:04;10.23;;;8.70;;
14116;SDS011;7137;51.436;6.544;2024-01-30T10:23:06;11.00;;;8.57;;
14116;SDS011;7137;51.436;6.544;2024-01-30T10:26:08;12.50;;;8.47;;
14116;SDS011;7137;51.436;6.544;2024-01-30T10:29:11;12.70;;;8.93;;
14116;SDS011;7137;51.436;6.544;2024-01-30T10:32:13;12.03;;;9.07;;
14116;SDS011;7137;51.436;6.544;2024-01-30T10:35:17;12.27;;;9.10;;
14116;SDS011;7137;51.436;6.544;2024-01-30T10:38:20;11.37;;;8.70;;
14116;SDS011;7137;51.436;6.544;2024-01-30T10:41:26;11.50;;;8.13;;
14116;SDS011;7137;51.436;6.544;2024-01-30T10:44:30;12.87;;;8.60;;
14116;SDS011;7137;51.436;6.544;2024-01-30T10:47:40;13.07;;;9.23;;
14116;SDS011;7137;51.436;6.544;2024-01-30T10:50:45;12.03;;;8.93;;
14116;SDS011;7137;51.436;6.544;2024-01-30T10:53:47;11.63;;;8.53;;
14116;SDS011;7137;51.436;6.544;2024-01-30T10:56:53;15.47;;;9.77;;
14116;SDS011;7137;51.436;6.544;2024-01-30T11:00:00;11.57;;;8.70;;
14116;SDS011;7137;51.436;6.544;2024-01-30T11:03:05;11.57;;;8.77;;
14116;SDS011;7137;51.436;6.544;2024-01-30T11:06:11;14.73;;;9.30;;
14116;SDS011;7137;51.436;6.544;2024-01-30T11:09:16;11.37;;;8.40;;
14116;SDS011;7137;51.436;6.544;2024-01-30T11:12:21;10.33;;;8.70;;
14116;SDS011;7137;51.436;6.544;2024-01-30T11:15:25;11.97;;;8.97;;
14116;SDS011;7137;51.436;6.544;2024-01-30T11:18:27;12.43;;;8.43;;
14116;SDS011;7137;51.436;6.544;2024-01-30T11:21:30;9.87;;;8.37;;
14116;SDS011;7137;51.436;6.544;2024-01-30T11:24:36;12.47;;;9.47;;
14116;SDS011;7137;51.436;6.544;2024-01-30T11:27:41;12.27;;;9.27;;
14116;SDS011;7137;51.436;6.544;2024-01-30T11:30:45;12.43;;;8.70;;
14116;SDS011;7137;51.436;6.544;2024-01-30T11:33:52;13.27;;;8.60;;
14116;SDS011;7137;51.436;6.544;2024-01-30T11:36:55;13.27;;;8.43;;
14116;SDS011;7137;51.436;6.544;2024-01-30T11:39:59;13.87;;;8.40;;
14116;SDS011;7137;51.436;6.544;2024-01-30T11:43:04;13.30;;;8.40;;
14116;SDS011;7137;51.436;6.544;2024-01-30T11:46:09;11.83;;;8.47;;
14116;SDS011;7137;51.436;6.544;2024-01-30T11:49:11;11.73;;;9.00;;
14116;SDS011;7137;51.436;6.544;2024-01-30T11:52:13;11.00;;;8.43;;
14116;SDS011;7137;51.436;6.544;2024-01-30T11:55:15;10.53;;;8.30;;
14116;SDS011;7137;51.436;6.544;2024-01-30T11:58:17;10.93;;;8.03;;
14116;SDS011;7137;51.436;6.544;2024-01-30T12:01:22;10.40;;;8.03;;
14116;SDS011;7137;51.436;6.544;2024-01-30T12:04:27;11.77;;;8.97;;
14116;SDS011;7137;51.436;6.544;2024-01-30T12:07:29;11.37;;;8.80;;
14116;SDS011;7137;51.436;6.544;2024-01-30T12:10:31;12.63;;;8.43;;
14116;SDS011;7137;51.436;6.544;2024-01-30T12:13:33;12.17;;;8.70;;
14116;SDS011;7137;51.436;6.544;2024-01-30T12:16:37;12.57;;;8.37;;
14116;SDS011;7137;51.436;6.544;2024-01-30T12:19:39;10.73;;;8.20;;
14116;SDS011;7137;51.436;6.544;2024-01-30T12:22:41;11.37;;;8.60;;
14116;SDS011;7137;51.436;6.544;2024-01-30T12:25:44;11.67;;;8.73;;
14116;SDS011;7137;51.436;6.544;2024-01-30T12:28:49;11.87;;;8.17;;
14116;SDS011;7137;51.436;6.544;2024-01-30T12:31:53;12.60;;;8.40;;
14116;SDS011;7137;51.436;6.544;2024-01-30T12:34:57;11.63;;;8.10;;
14116;SDS011;7137;51.436;6.544;2024-01-30T12:37:59;10.33;;;7.30;;
14116;SDS011;7137;51.436;6.544;2024-01-30T12:41:02;11.67;;;7.43;;
14116;SDS011;7137;51.436;6.544;2024-01-30T12:44:04;11.23;;;7.67;;
14116;SDS011;7137;51.436;6.544;2024-01-30T12:47:08;11.87;;;7.30;;
14116;SDS011;7137;51.436;6.544;2024-01-30T12:50:10;10.03;;;7.27;;
14116;SDS011;7137;51.436;6.544;2024-01-30T12:53:12;11.33;;;7.23;;
14116;SDS011;7137;51.436;6.544;2024-01-30T12:56:14;13.87;;;7.43;;
14116;SDS011;7137;51.436;6.544;2024-01-30T12:59:16;9.83;;;6.80;;
14116;SDS011;7137;51.436;6.544;2024-01-30T13:02:20;11.77;;;7.67;;
14116;SDS011;7137;51.436;6.544;2024-01-30T13:05:23;11.37;;;7.27;;
14116;SDS011;7137;51.436;6.544;2024-01-30T13:08:27;10.27;;;7.47;;
14116;SDS011;7137;51.436;6.544;2024-01-30T13:11:29;12.33;;;7.30;;
14116;SDS011;7137;51.436;6.544;2024-01-30T13:14:32;9.63;;;7.03;;
14116;SDS011;7137;51.436;6.544;2024-01-30T13:17:34;10.00;;;6.97;;
14116;SDS011;7137;51.436;6.544;2024-01-30T13:20:36;11.83;;;6.90;;
14116;SDS011;7137;51.436;6.544;2024-01-30T13:23:38;9.07;;;7.13;;
14116;SDS011;7137;51.436;6.544;2024-01-30T13:26:40;11.73;;;6.97;;
14116;SDS011;7137;51.436;6.544;2024-01-30T13:29:44;10.10;;;6.83;;
14116;SDS011;7137;51.436;6.544;2024-01-30T13:32:48;9.50;;;6.87;;
14116;SDS011;7137;51.436;6.544;2024-01-30T13:35:50;11.50;;;6.53;;
14116;SDS011;7137;51.436;6.544;2024-01-30T13:38:53;12.47;;;7.20;;
14116;SDS011;7137;51.436;6.544;2024-01-30T13:41:56;12.20;;;7.33;;
14116;SDS011;7137;51.436;6.544;2024-01-30T13:44:59;11.27;;;7.00;;
14116;SDS011;7137;51.436;6.544;2024-01-30T13:48:03;9.83;;;6.77;;
14116;SDS011;7137;51.436;6.544;2024-01-30T13:51:05;11.63;;;6.57;;
14116;SDS011;7137;51.436;6.544;2024-01-30T13:54:07;11.43;;;8.27;;
14116;SDS011;7137;51.436;6.544;2024-01-30T13:57:10;13.30;;;9.63;;
14116;SDS011;7137;51.436;6.544;2024-01-30T14:00:12;11.70;;;7.40;;
14116;SDS011;7137;51.436;6.544;2024-01-30T14:03:17;10.57;;;7.23;;
14116;SDS011;7137;51.436;6.544;2024-01-30T14:06:19;9.20;;;6.20;;
14116;SDS011;7137;51.436;6.544;2024-01-30T14:09:20;10.60;;;7.20;;
14116;SDS011;7137;51.436;6.544;2024-01-30T14:12:22;10.60;;;6.77;;
14116;SDS011;7137;51.436;6.544;2024-01-30T14:15:23;10.93;;;6.60;;
14116;SDS011;7137;51.436;6.544;2024-01-30T14:18:26;10.30;;;6.60;;
14116;SDS011;7137;51.436;6.544;2024-01-30T14:21:28;7.47;;;5.00;;
14116;SDS011;7137;51.436;6.544;2024-01-30T14:24:30;9.53;;;4.63;;
14116;SDS011;7137;51.436;6.544;2024-01-30T14:27:31;7.27;;;3.53;;
14116;SDS011;7137;51.436;6.544;2024-01-30T14:30:34;7.37;;;3.20;;
14116;SDS011;7137;51.436;6.544;2024-01-30T14:33:38;7.80;;;3.20;;
14116;SDS011;7137;51.436;6.544;2024-01-30T14:36:39;6.77;;;3.17;;
14116;SDS011;7137;51.436;6.544;2024-01-30T14:39:41;6.57;;;3.20;;
14116;SDS011;7137;51.436;6.544;2024-01-30T14:42:43;7.20;;;3.60;;
14116;SDS011;7137;51.436;6.544;2024-01-30T14:45:44;6.33;;;3.20;;
14116;SDS011;7137;51.436;6.544;2024-01-30T14:48:51;8.87;;;3.03;;
14116;SDS011;7137;51.436;6.544;2024-01-30T14:51:52;9.17;;;3.10;;
14116;SDS011;7137;51.436;6.544;2024-01-30T14:54:54;6.60;;;3.30;;
14116;SDS011;7137;51.436;6.544;2024-01-30T14:57:55;8.73;;;3.30;;
14116;SDS011;7137;51.436;6.544;2024-01-30T15:00:59;6.30;;;2.83;;
14116;SDS011;7137;51.436;6.544;2024-01-30T15:04:02;5.80;;;2.47;;
14116;SDS011;7137;51.436;6.544;2024-01-30T15:07:04;5.53;;;2.10;;
14116;SDS011;7137;51.436;6.544;2024-01-30T15:10:06;5.33;;;2.07;;
14116;SDS011;7137;51.436;6.544;2024-01-30T15:13:09;4.33;;;1.63;;
14116;SDS011;7137;51.436;6.544;2024-01-30T15:16:11;5.37;;;1.80;;
14116;SDS011;7137;51.436;6.544;2024-01-30T15:19:14;4.73;;;1.60;;
14116;SDS011;7137;51.436;6.544;2024-01-30T15:22:16;5.30;;;1.43;;
14116;SDS011;7137;51.436;6.544;2024-01-30T15:25:17;5.37;;;1.53;;
14116;SDS011;7137;51.436;6.544;2024-01-30T15:28:19;4.00;;;1.30;;
14116;SDS011;7137;51.436;6.544;2024-01-30T15:31:25;5.00;;;1.23;;
14116;SDS011;7137;51.436;6.544;2024-01-30T15:34:28;4.00;;;1.30;;
14116;SDS011;7137;51.436;6.544;2024-01-30T15:37:30;3.93;;;1.17;;
14116;SDS011;7137;51.436;6.544;2024-01-30T15:40:32;8.37;;;2.40;;
14116;SDS011;7137;51.436;6.544;2024-01-30T15:43:33;8.23;;;3.20;;
14116;SDS011;7137;51.436;6.544;2024-01-30T15:46:36;5.40;;;1.40;;
14116;SDS011;7137;51.436;6.544;2024-01-30T15:49:40;4.13;;;1.10;;
14116;SDS011;7137;51.436;6.544;2024-01-30T15:52:42;3.83;;;1.30;;
14116;SDS011;7137;51.436;6.544;2024-01-30T15:55:43;4.43;;;1.70;;
14116;SDS011;7137;51.436;6.544;2024-01-30T15:58:45;3.40;;;1.50;;
14116;SDS011;7137;51.436;6.544;2024-01-30T16:01:49;5.77;;;1.70;;
14116;SDS011;7137;51.436;6.544;2024-01-30T16:04:52;5.07;;;1.20;;
14116;SDS011;7137;51.436;6.544;2024-01-30T16:07:53;6.43;;;1.40;;
14116;SDS011;7137;51.436;6.544;2024-01-30T16:10:55;4.73;;;1.27;;
14116;SDS011;7137;51.436;6.544;2024-01-30T16:13:56;5.03;;;1.50;;
14116;SDS011;7137;51.436;6.544;2024-01-30T16:16:58;5.57;;;1.17;;
14116;SDS011;7137;51.436;6.544;2024-01-30T16:20:02;5.23;;;1.37;;
14116;SDS011;7137;51.436;6.544;2024-01-30T16:23:05;3.53;;;1.10;;
14116;SDS011;7137;51.436;6.544;2024-01-30T16:26:07;4.30;;;1.30;;
14116;SDS011;7137;51.436;6.544;2024-01-30T16:29:08;5.97;;;1.60;;
14116;SDS011;7137;51.436;6.544;2024-01-30T16:32:10;3.87;;;1.20;;
14116;SDS011;7137;51.436;6.544;2024-01-30T16:35:13;2.63;;;0.93;;
14116;SDS011;7137;51.436;6.544;2024-01-30T16:38:14;5.43;;;1.33;;
14116;SDS011;7137;51.436;6.544;2024-01-30T16:41:16;4.53;;;1.20;;
14116;SDS011;7137;51.436;6.544;2024-01-30T16:44:17;3.37;;;1.60;;
14116;SDS011;7137;51.436;6.544;2024-01-30T16:47:19;3.10;;;1.30;;
14116;SDS011;7137;51.436;6.544;2024-01-30T16:50:22;4.20;;;1.40;;
14116;SDS011;7137;51.436;6.544;2024-01-30T16:53:24;4.20;;;1.40;;
14116;SDS011;7137;51.436;6.544;2024-01-30T16:56:25;5.33;;;1.73;;
14116;SDS011;7137;51.436;6.544;2024-01-30T16:59:27;4.10;;;1.87;;
14116;SDS011;7137;51.436;6.544;2024-01-30T17:02:28;6.47;;;2.67;;
14116;SDS011;7137;51.436;6.544;2024-01-30T17:05:31;8.93;;;2.90;;
14116;SDS011;7137;51.436;6.544;2024-01-30T17:08:33;6.90;;;2.50;;
14116;SDS011;7137;51.436;6.544;2024-01-30T17:11:34;4.60;;;2.17;;
14116;SDS011;7137;51.436;6.544;2024-01-30T17:14:36;6.50;;;2.70;;
14116;SDS011;7137;51.436;6.544;2024-01-30T17:17:39;5.50;;;2.83;;
14116;SDS011;7137;51.436;6.544;2024-01-30T17:20:42;5.07;;;2.67;;
14116;SDS011;7137;51.436;6.544;2024-01-30T17:23:43;6.27;;;3.00;;
14116;SDS011;7137;51.436;6.544;2024-01-30T17:26:45;5.47;;;3.00;;
14116;SDS011;7137;51.436;6.544;2024-01-30T17:29:46;6.20;;;2.77;;
14116;SDS011;7137;51.436;6.544;2024-01-30T17:32:48;5.83;;;2.50;;
14116;SDS011;7137;51.436;6.544;2024-01-30T17:35:51;5.17;;;2.37;;
14116;SDS011;7137;51.436;6.544;2024-01-30T17:38:52;5.63;;;2.70;;
14116;SDS011;7137;51.436;6.544;2024-01-30T17:41:54;4.77;;;2.93;;
14116;SDS011;7137;51.436;6.544;2024-01-30T17:44:55;4.67;;;2.90;;
14116;SDS011;7137;51.436;6.544;2024-01-30T17:47:57;5.50;;;2.90;;
14116;SDS011;7137;51.436;6.544;2024-01-30T17:51:00;4.87;;;3.10;;
14116;SDS011;7137;51.436;6.544;2024-01-30T17:54:02;5.97;;;3.23;;
14116;SDS011;7137;51.436;6.544;2024-01-30T17:57:03;7.17;;;3.20;;
14116;SDS011;7137;51.436;6.544;2024-01-30T18:00:05;5.37;;;3.43;;
14116;SDS011;7137;51.436;6.544;2024-01-30T18:03:08;5.33;;;3.20;;
14116;SDS011;7137;51.436;6.544;2024-01-30T18:06:14;6.83;;;3.60;;
14116;SDS011;7137;51.436;6.544;2024-01-30T18:09:16;4.60;;;3.50;;
14116;SDS011;7137;51.436;6.544;2024-01-30T18:12:17;5.93;;;3.77;;
14116;SDS011;7137;51.436;6.544;2024-01-30T18:15:21;5.90;;;3.70;;
14116;SDS011;7137;51.436;6.544;2024-01-30T18:18:22;5.30;;;3.83;;
14116;SDS011;7137;51.436;6.544;2024-01-30T18:21:27;4.77;;;3.37;;